Time;durP1;ratioP1;P1;durP2;ratioP2;P2;SDS_P1;SDS_P2;PMS_P1;PMS_P2;Temp;Humidity;BMP_temperature;BMP_pressure;BME280_temperature;BME280_humidity;BME280_pressure;Samples;Min_cycle;Max_cycle;Signal;HPM_P1;HPM_P2
2021/01/02 00:01:37;;;;;;;47.38;24.70;;;5.60;93.90;;;5.53;78.45;100147.78;5046763;28;20092;-91
2021/01/02 00:04:50;;;;;;;46.42;25.05;;;5.60;93.90;;;5.55;78.70;100140.38;5046929;28;20048;-92
2021/01/02 00:07:48;;;;;;;47.88;26.02;;;5.60;94.00;;;5.51;78.58;100148.97;5046090;28;20049;-92
2021/01/02 00:10:20;;;;;;;44.78;26.23;;;5.60;93.70;;;5.53;78.46;100146.94;5045122;28;20090;-92
2021/01/02 00:13:19;;;;;;;48.13;25.88;;;5.60;93.70;;;5.56;78.52;100150.16;5047010;28;20561;-92
2021/01/02 00:16:27;;;;;;;41.35;24.90;;;5.60;93.70;;;5.55;78.53;100153.03;5055375;28;20274;-92
2021/01/02 00:20:03;;;;;;;45.53;24.92;;;5.60;93.90;;;5.58;78.62;100156.25;5046596;28;20049;-92
2021/01/02 00:22:50;;;;;;;43.70;24.60;;;5.70;94.00;;;5.61;78.34;100157.78;5062870;28;20056;-92
2021/01/02 00:25:21;;;;;;;45.38;24.67;;;5.60;93.90;;;5.54;78.66;100151.31;5060765;28;20048;-92
2021/01/02 00:28:22;;;;;;;49.37;25.77;;;5.60;94.00;;;5.58;78.93;100152.69;5047196;28;20086;-93
2021/01/02 00:31:41;;;;;;;42.72;24.60;;;5.60;94.30;;;5.60;78.84;100148.00;5046652;28;20056;-91
2021/01/02 00:34:37;;;;;;;44.22;24.70;;;5.60;94.10;;;5.57;78.66;100153.72;5042165;28;20056;-92
2021/01/02 00:37:14;;;;;;;48.65;25.30;;;5.80;94.20;;;5.53;78.70;100153.19;5046434;28;20170;-92
2021/01/02 00:40:22;;;;;;;45.10;24.70;;;5.60;94.30;;;5.54;78.50;100148.63;5047566;28;20082;-92
2021/01/02 00:42:54;;;;;;;45.53;24.90;;;5.60;94.30;;;5.41;79.13;100143.69;5046175;28;20056;-91
2021/01/02 00:45:26;;;;;;;44.78;24.85;;;5.50;94.20;;;5.37;79.48;100153.94;5046374;28;20513;-92
2021/01/02 00:47:53;;;;;;;45.33;26.88;;;5.60;94.20;;;5.36;79.50;100149.53;5046159;28;20056;-92
2021/01/02 00:51:06;;;;;;;46.88;25.98;;;5.60;94.40;;;5.38;79.62;100150.22;5046099;28;20049;-91
2021/01/02 00:54:07;;;;;;;46.72;25.90;;;5.50;94.50;;;5.36;79.45;100157.63;5047065;28;20395;-92
2021/01/02 00:56:51;;;;;;;49.05;26.08;;;5.50;94.50;;;5.37;79.71;100158.47;5046737;28;20045;-92
2021/01/02 01:00:02;;;;;;;46.40;26.70;;;5.50;94.50;;;5.33;79.45;100160.69;5046785;28;20473;-91
2021/01/02 01:03:10;;;;;;;49.03;25.42;;;5.50;94.60;;;5.30;79.76;100158.28;5065915;28;20571;-92
2021/01/02 01:05:56;;;;;;;44.50;25.13;;;5.50;94.60;;;5.36;79.87;100157.63;5049976;28;20067;-92
2021/01/02 01:08:24;;;;;;;48.78;25.45;;;5.50;94.40;;;5.42;79.35;100162.38;5049784;28;20391;-91
2021/01/02 01:10:52;;;;;;;45.38;24.55;;;5.50;94.70;;;5.43;79.31;100168.66;5049925;28;20829;-92
2021/01/02 01:13:21;;;;;;;52.25;26.40;;;5.50;94.70;;;5.34;79.62;100167.75;5066550;28;20060;-92
2021/01/02 01:15:52;;;;;;;44.78;25.65;;;5.50;94.80;;;5.37;79.64;100164.75;5050276;28;20084;-92
2021/01/02 01:18:46;;;;;;;45.80;25.70;;;5.50;94.80;;;5.37;79.61;100164.75;5050069;28;20049;-91
2021/01/02 01:21:27;;;;;;;44.90;25.75;;;5.50;94.80;;;5.44;79.36;100173.03;5049817;28;20398;-93
2021/01/02 01:24:09;;;;;;;45.33;25.37;;;5.50;94.80;;;5.45;79.03;100177.44;5049916;28;20049;-92
2021/01/02 01:27:15;;;;;;;47.55;25.70;;;5.50;94.80;;;5.49;79.33;100178.81;5049735;28;20310;-92
2021/01/02 01:29:59;;;;;;;46.45;25.35;;;5.40;94.80;;;5.53;78.90;100190.13;5066205;28;20048;-91
2021/01/02 01:32:28;;;;;;;46.28;25.05;;;5.40;94.80;;;5.44;79.39;100179.25;5062894;28;20045;-92
2021/01/02 01:34:59;;;;;;;46.55;24.20;;;5.40;94.80;;;5.46;79.03;100179.97;5049046;28;20065;-91
2021/01/02 01:37:30;;;;;;;42.63;24.13;;;5.40;95.10;;;5.42;79.37;100178.59;5049384;28;20049;-92
2021/01/02 01:39:57;;;;;;;47.90;26.27;;;5.40;95.00;;;5.46;79.02;100189.91;5051217;28;20446;-92
2021/01/02 01:42:44;;;;;;;43.80;24.40;;;5.40;95.00;;;5.46;79.22;100188.06;5049191;28;20418;-91
2021/01/02 01:45:43;;;;;;;46.10;25.17;;;5.40;95.00;;;5.43;79.39;100190.25;5049659;28;20049;-92
2021/01/02 01:48:12;;;;;;;43.10;24.60;;;5.50;95.10;;;5.34;79.30;100193.91;5049946;28;20129;-92
2021/01/02 01:50:55;;;;;;;44.13;24.58;;;5.40;94.80;;;5.37;79.83;100194.44;5049538;28;20477;-91
2021/01/02 01:53:55;;;;;;;44.40;25.25;;;5.40;95.00;;;5.43;79.42;100188.38;5049716;28;20426;-90
2021/01/02 01:56:31;;;;;;;42.90;23.20;;;5.40;95.10;;;5.40;79.69;100191.38;5050599;28;20033;-92
2021/01/02 01:59:23;;;;;;;40.90;23.67;;;5.40;95.00;;;5.42;79.58;100194.78;5049798;28;20049;-93
2021/01/02 02:01:53;;;;;;;43.13;23.88;;;5.40;95.00;;;5.43;79.29;100192.94;5049295;28;20103;-90
2021/01/02 02:05:04;;;;;;;44.33;23.88;;;5.40;95.00;;;5.34;79.64;100192.03;5049108;28;20502;-92
2021/01/02 02:07:59;;;;;;;44.90;24.25;;;5.40;95.20;;;5.37;79.70;100191.72;5055285;28;20106;-92
2021/01/02 02:10:34;;;;;;;41.95;23.05;;;5.40;95.20;;;5.27;79.93;100191.84;5048715;28;20131;-92
2021/01/02 02:13:20;;;;;;;44.72;24.70;;;5.40;95.10;;;5.35;79.82;100193.75;5047388;28;20171;-92
2021/01/02 02:15:50;;;;;;;41.92;23.52;;;5.40;95.20;;;5.30;79.72;100190.66;5048770;28;20053;-90
2021/01/02 02:18:22;;;;;;;42.28;23.88;;;5.40;95.00;;;5.27;79.56;100189.13;5048484;28;20834;-91
2021/01/02 02:20:52;;;;;;;40.70;23.38;;;5.40;95.10;;;5.31;79.74;100184.25;5065333;28;20055;-91
2021/01/02 02:23:27;;;;;;;39.38;21.30;;;5.40;95.20;;;5.32;79.69;100188.66;5048608;28;20061;-91
2021/01/02 02:26:06;;;;;;;38.90;22.52;;;5.40;95.20;;;5.37;79.61;100194.44;5048219;28;20045;-92
2021/01/02 02:29:24;;;;;;;38.15;21.58;;;5.40;95.30;;;5.37;79.28;100198.94;5048032;28;20041;-91
2021/01/02 02:31:56;;;;;;;39.05;20.85;;;5.40;95.30;;;5.38;79.69;100187.16;5048355;28;20574;-92
2021/01/02 02:34:24;;;;;;;35.30;20.23;;;5.40;95.00;;;5.39;79.19;100188.88;5064690;28;20748;-92
2021/01/02 02:36:51;;;;;;;31.67;18.55;;;5.40;94.80;;;5.35;79.17;100192.88;5047752;28;20049;-91
2021/01/02 02:39:18;;;;;;;32.70;18.15;;;5.40;94.80;;;5.37;78.73;100191.72;5047527;28;20041;-91
2021/01/02 02:41:52;;;;;;;33.47;18.65;;;5.30;94.80;;;5.37;78.64;100193.56;5047863;28;20548;-90
2021/01/02 02:44:24;;;;;;;30.50;18.02;;;5.40;94.70;;;5.35;79.29;100192.88;5047852;28;20392;-92
2021/01/02 02:46:57;;;;;;;30.52;16.95;;;5.30;94.90;;;5.38;78.85;100198.81;5048181;28;20102;-92
2021/01/02 02:49:26;;;;;;;35.17;18.17;;;5.30;94.70;;;5.43;78.51;100187.53;5048551;28;20052;-92
2021/01/02 02:51:59;;;;;;;31.20;17.70;;;5.30;94.70;;;5.35;78.54;100199.13;5047934;28;20037;-91
2021/01/02 02:54:26;;;;;;;34.00;17.67;;;5.30;94.50;;;5.39;78.90;100196.97;5047739;28;20068;-91
2021/01/02 02:56:54;;;;;;;33.92;17.73;;;5.30;94.90;;;5.36;78.31;100200.81;5048069;28;20053;-92
2021/01/02 02:59:21;;;;;;;29.05;16.92;;;5.30;94.50;;;5.28;78.96;100192.69;5049167;28;20045;-92
2021/01/02 03:01:48;;;;;;;26.92;16.20;;;5.20;94.40;;;5.32;79.20;100188.66;5048123;28;20056;-93
2021/01/02 03:04:16;;;;;;;31.63;16.73;;;5.30;94.70;;;5.27;78.85;100190.97;5049122;28;20044;-89
2021/01/02 03:06:43;;;;;;;33.35;17.15;;;5.30;94.70;;;5.28;78.91;100190.81;5047606;28;20037;-92
2021/01/02 03:09:11;;;;;;;28.38;16.65;;;5.30;94.70;;;5.30;78.38;100187.97;5048106;28;20389;-92
2021/01/02 03:11:41;;;;;;;27.42;15.52;;;5.20;94.20;;;5.35;78.28;100190.16;5048017;28;20102;-92
2021/01/02 03:14:09;;;;;;;27.30;15.98;;;5.20;94.30;;;5.37;77.99;100196.25;5064211;28;20045;-92
2021/01/02 03:16:35;;;;;;;29.25;16.20;;;5.20;94.30;;;5.38;78.35;100195.25;5047763;28;20048;-92
2021/01/02 03:19:05;;;;;;;29.23;16.77;;;5.20;94.50;;;5.40;77.98;100191.38;5064387;28;20064;-92
2021/01/02 03:21:32;;;;;;;31.85;16.73;;;5.20;94.60;;;5.33;78.52;100195.75;5049129;28;20129;-92
2021/01/02 03:24:02;;;;;;;26.80;15.93;;;5.20;94.50;;;5.36;78.20;100199.97;5047855;28;20056;-93
2021/01/02 03:26:29;;;;;;;32.97;16.98;;;5.20;94.70;;;5.29;78.36;100206.00;5048225;28;20048;-92
2021/01/02 03:28:56;;;;;;;32.40;17.17;;;5.30;95.00;;;5.24;78.64;100202.09;5047767;28;20163;-92
2021/01/02 03:31:24;;;;;;;28.73;16.88;;;5.20;94.70;;;5.28;78.43;100207.00;5048237;28;20045;-92
2021/01/02 03:33:51;;;;;;;34.70;18.15;;;5.20;94.70;;;5.29;78.91;100215.94;5047629;28;20152;-92
2021/01/02 03:36:18;;;;;;;31.85;17.60;;;5.20;94.80;;;5.33;78.51;100213.78;5047789;28;20802;-92
2021/01/02 03:38:55;;;;;;;32.05;17.10;;;5.20;94.80;;;5.25;78.33;100206.47;5047615;28;20044;-92
2021/01/02 03:41:22;;;;;;;30.58;18.13;;;5.20;94.70;;;5.19;78.89;100204.41;5047867;28;20055;-92
2021/01/02 03:43:51;;;;;;;33.35;17.63;;;5.20;94.50;;;5.22;78.66;100204.09;5047581;28;20049;-93
2021/01/02 03:46:20;;;;;;;29.20;17.35;;;5.20;94.50;;;5.26;78.61;100205.47;5047322;28;20664;-90
2021/01/02 03:48:48;;;;;;;31.73;18.23;;;5.20;94.50;;;5.27;78.56;100212.56;5048680;28;20052;-92
2021/01/02 03:51:21;;;;;;;33.33;17.33;;;5.20;94.50;;;5.18;78.66;100208.09;5046810;28;20094;-91
2021/01/02 03:53:48;;;;;;;33.70;18.23;;;5.20;94.40;;;5.15;78.88;100201.19;5046813;28;20053;-92
2021/01/02 03:56:14;;;;;;;32.22;17.73;;;5.20;94.40;;;5.20;78.92;100211.50;5046676;28;20037;-91
2021/01/02 03:58:41;;;;;;;34.78;18.75;;;5.20;94.30;;;5.19;78.15;100199.84;5046782;28;20045;-92
2021/01/02 04:01:08;;;;;;;37.35;18.20;;;5.20;94.10;;;5.26;78.62;100200.09;5046472;28;20041;-93
2021/01/02 04:03:35;;;;;;;38.20;20.13;;;5.20;94.30;;;5.22;78.48;100204.09;5046768;28;20041;-92
2021/01/02 04:06:03;;;;;;;30.50;18.00;;;5.30;94.40;;;5.28;78.38;100207.00;5064266;28;20052;-91
2021/01/02 04:08:30;;;;;;;35.13;18.50;;;5.20;94.60;;;5.18;78.38;100205.41;5046466;28;20049;-92
2021/01/02 04:10:57;;;;;;;34.88;18.95;;;5.20;94.30;;;5.23;78.57;100205.78;5046754;28;20048;-91
2021/01/02 04:13:23;;;;;;;37.05;19.08;;;5.20;94.30;;;5.22;78.29;100204.09;5046916;28;20045;-92
2021/01/02 04:15:51;;;;;;;31.65;18.83;;;5.20;94.30;;;5.20;78.56;100200.72;5046910;28;20045;-92
2021/01/02 04:18:18;;;;;;;32.75;18.98;;;5.20;94.20;;;5.20;78.55;100198.03;5046811;28;20095;-93
2021/01/02 04:20:47;;;;;;;35.60;19.40;;;5.20;94.30;;;5.26;77.92;100206.31;5046797;28;20490;-93
2021/01/02 04:23:15;;;;;;;34.25;20.08;;;5.20;94.40;;;5.22;78.26;100201.41;5046072;28;20130;-92
2021/01/02 04:25:42;;;;;;;37.65;19.88;;;5.20;94.20;;;5.23;78.72;100192.28;5063156;28;20561;-93
2021/01/02 04:28:10;;;;;;;35.17;19.75;;;5.20;94.30;;;5.25;78.06;100198.38;5046209;28;20037;-92
2021/01/02 04:30:37;;;;;;;35.65;19.92;;;5.20;94.20;;;5.31;78.22;100196.91;5047523;28;20589;-91
2021/01/02 04:33:04;;;;;;;35.00;19.83;;;5.20;94.20;;;5.29;77.84;100199.75;5047281;28;20045;-91
2021/01/02 04:35:31;;;;;;;41.58;21.45;;;5.20;94.20;;;5.27;77.84;100197.22;5046449;28;20037;-90
2021/01/02 04:38:01;;;;;;;36.03;19.52;;;5.20;94.20;;;5.21;78.00;100199.69;5051165;28;20087;-92
2021/01/02 04:40:28;;;;;;;39.60;19.95;;;5.20;94.00;;;5.29;78.03;100206.00;5050351;28;20498;-92
2021/01/02 04:42:55;;;;;;;38.67;21.08;;;5.20;94.00;;;5.19;78.37;100201.72;5050474;28;20041;-93
2021/01/02 04:45:24;;;;;;;35.72;20.73;;;5.20;94.10;;;5.26;78.22;100205.47;5050162;28;20048;-92
2021/01/02 04:47:52;;;;;;;38.30;21.23;;;5.20;94.10;;;5.27;78.34;100208.03;5050052;28;20457;-93
2021/01/02 04:50:18;;;;;;;35.55;19.58;;;5.20;94.30;;;5.22;78.18;100202.25;5051302;28;20041;-92
2021/01/02 04:52:48;;;;;;;36.72;20.38;;;5.20;94.00;;;5.24;77.78;100196.69;5067304;28;20049;-92
2021/01/02 04:55:18;;;;;;;34.58;19.38;;;5.30;94.10;;;5.22;78.15;100198.72;5051335;28;20037;-92
2021/01/02 04:57:48;;;;;;;34.28;19.45;;;5.10;93.90;;;5.22;78.18;100204.94;5066982;28;20132;-92
2021/01/02 05:00:17;;;;;;;38.83;20.75;;;5.10;93.80;;;5.23;77.92;100206.63;5050275;28;20095;-92
2021/01/02 05:02:45;;;;;;;37.35;20.40;;;5.20;93.80;;;5.19;78.23;100201.72;5049751;28;20049;-92
2021/01/02 05:05:12;;;;;;;40.40;22.25;;;5.10;93.90;;;5.15;77.45;100203.03;5049790;28;20064;-91
2021/01/02 05:07:39;;;;;;;36.78;21.25;;;5.10;93.80;;;5.19;77.79;100215.19;5066135;28;20063;-92
2021/01/02 05:10:07;;;;;;;37.70;20.67;;;5.20;93.50;;;5.24;77.65;100208.31;5049318;28;20418;-91
2021/01/02 05:12:35;;;;;;;34.78;19.15;;;5.10;93.40;;;5.29;77.79;100211.41;5050726;28;20052;-91
2021/01/02 05:15:09;;;;;;;36.15;20.45;;;5.10;93.70;;;5.27;77.57;100212.56;5049237;28;20087;-92
2021/01/02 05:17:37;;;;;;;35.33;20.25;;;5.10;93.60;;;5.22;77.41;100214.91;5049294;28;20041;-91
2021/01/02 05:20:10;;;;;;;36.42;20.25;;;5.10;93.50;;;5.18;77.51;100216.19;5050331;28;20045;-91
2021/01/02 05:22:39;;;;;;;35.55;19.40;;;5.10;93.50;;;5.15;77.40;100219.22;5049088;28;20821;-91
2021/01/02 05:25:13;;;;;;;34.42;19.30;;;5.10;93.20;;;5.11;77.46;100223.25;5065663;28;20053;-92
2021/01/02 05:27:43;;;;;;;33.85;18.73;;;5.10;93.30;;;5.08;77.60;100222.56;5065695;28;20053;-92
2021/01/02 05:30:25;;;;;;;38.25;20.02;;;5.10;93.10;;;5.08;77.32;100224.38;5048787;28;20045;-91
2021/01/02 05:33:08;;;;;;;36.05;20.05;;;5.10;93.10;;;5.11;77.19;100223.25;5048720;28;20051;-90
2021/01/02 05:35:41;;;;;;;37.95;20.38;;;5.10;92.90;;;5.13;77.28;100221.22;5065401;28;20601;-92
2021/01/02 05:38:18;;;;;;;35.60;20.98;;;5.10;92.90;;;5.17;76.74;100215.34;5050411;28;20076;-93
2021/01/02 05:40:51;;;;;;;37.55;20.67;;;5.00;92.70;;;5.15;76.87;100228.16;5049229;28;20441;-91
2021/01/02 05:43:20;;;;;;;41.42;21.20;;;5.10;92.90;;;5.15;77.10;100227.31;5050058;28;20049;-92
2021/01/02 05:45:49;;;;;;;38.65;21.63;;;5.00;92.90;;;5.17;76.91;100233.41;5049116;28;20052;-91
2021/01/02 05:48:21;;;;;;;35.13;20.55;;;5.10;93.10;;;5.18;76.76;100229.69;5065189;28;20506;-92
2021/01/02 05:50:53;;;;;;;38.45;21.23;;;5.00;92.90;;;5.22;77.37;100241.88;5065566;28;20463;-92
2021/01/02 05:53:25;;;;;;;;;;;5.00;93.00;;;5.18;76.71;100235.06;5049297;28;20060;-92
2021/01/02 05:56:04;;;;;;;38.88;20.92;;;5.00;92.90;;;5.13;77.07;100243.66;5050512;28;20370;-92
2021/01/02 05:58:32;;;;;;;38.72;20.60;;;5.00;93.00;;;5.09;77.29;100242.25;5064530;28;20057;-90
2021/01/02 06:01:07;;;;;;;43.35;22.05;;;5.00;93.20;;;5.13;77.23;100240.94;5047127;28;20588;-89
2021/01/02 06:03:36;;;;;;;37.17;19.92;;;5.00;93.30;;;5.05;77.29;100236.34;5048197;28;20111;-89
2021/01/02 06:06:05;;;;;;;37.55;21.30;;;5.00;93.20;;;5.06;77.06;100245.25;5066181;28;20127;-88
2021/01/02 06:08:37;;;;;;;37.33;20.50;;;5.00;93.10;;;4.97;77.30;100243.50;5066295;28;20045;-88
2021/01/02 06:11:10;;;;;;;40.95;21.65;;;5.00;92.70;;;4.95;77.48;100242.81;5066274;28;20044;-88
2021/01/02 06:13:40;;;;;;;42.58;20.83;;;5.00;92.90;;;5.00;77.35;100244.03;5067762;28;20052;-88
2021/01/02 06:16:08;;;;;;;37.80;20.85;;;5.00;92.90;;;4.99;77.52;100239.66;5066419;28;20567;-88
2021/01/02 06:18:38;;;;;;;42.53;21.63;;;5.00;92.90;;;5.09;76.69;100251.19;5066084;28;20643;-89
2021/01/02 06:21:08;;;;;;;38.00;20.75;;;5.00;93.00;;;5.05;76.61;100249.81;5067409;28;20048;-89
2021/01/02 06:23:37;;;;;;;41.63;21.98;;;4.90;92.80;;;5.01;77.00;100250.31;5066352;28;20048;-88
2021/01/02 06:26:09;;;;;;;46.00;21.98;;;4.90;92.70;;;5.00;76.86;100251.28;5083137;28;20530;-89
2021/01/02 06:28:41;;;;;;;40.35;21.35;;;4.90;92.90;;;4.93;77.18;100251.06;5067450;28;20048;-88
2021/01/02 06:31:11;;;;;;;36.47;19.08;;;4.90;92.70;;;4.89;76.46;100246.97;5066027;28;20090;-88
2021/01/02 06:33:48;;;;;;;40.45;21.30;;;4.90;92.70;;;4.96;77.13;100252.59;5067278;28;20048;-88
2021/01/02 06:36:33;;;;;;;42.65;23.10;;;4.90;92.60;;;4.96;77.14;100247.22;5067139;28;20041;-88
2021/01/02 06:39:24;;;;;;;36.10;20.25;;;4.90;92.70;;;5.01;76.78;100256.53;5065618;28;20051;-89
2021/01/02 06:41:53;;;;;;;41.45;21.45;;;4.90;92.90;;;4.97;77.06;100254.28;5042202;28;20047;-89
2021/01/02 06:44:45;;;;;;;38.05;21.30;;;4.90;93.00;;;5.00;77.07;100249.44;5065959;28;20054;-89
2021/01/02 06:47:18;;;;;;;38.53;21.27;;;4.90;93.10;;;4.98;76.88;100251.44;5032693;28;20438;-89
2021/01/02 06:49:46;;;;;;;40.38;22.25;;;4.90;92.90;;;4.97;77.03;100249.75;5045526;28;20049;-88
2021/01/02 06:52:29;;;;;;;39.35;21.02;;;4.90;92.80;;;4.96;76.57;100253.44;5045513;28;20056;-88
2021/01/02 06:55:19;;;;;;;41.15;22.00;;;4.90;92.60;;;4.91;76.85;100255.75;5043398;28;20053;-89
2021/01/02 06:57:45;;;;;;;42.22;22.15;;;4.90;92.70;;;4.90;76.89;100254.06;5045939;28;20041;-88
2021/01/02 07:00:26;;;;;;;40.60;21.10;;;4.90;92.70;;;4.93;76.78;100258.28;5045051;28;20521;-88
2021/01/02 07:02:53;;;;;;;38.10;20.90;;;4.90;92.70;;;4.90;76.65;100263.00;5045799;28;20513;-89
2021/01/02 07:05:43;;;;;;;46.53;22.55;;;4.90;92.60;;;4.88;77.20;100267.69;5045799;28;20521;-88
2021/01/02 07:08:40;;;;;;;40.47;20.70;;;4.90;92.50;;;4.96;76.89;100266.94;5046702;28;20521;-89
2021/01/02 07:11:34;;;;;;;41.88;21.92;;;4.90;92.30;;;4.97;76.85;100273.16;5062250;28;20033;-89
2021/01/02 07:14:25;;;;;;;44.53;21.95;;;4.90;92.40;;;4.98;77.08;100278.41;5045329;28;20052;-88
2021/01/02 07:16:58;;;;;;;45.03;23.13;;;5.00;92.60;;;5.02;76.48;100263.59;5046644;28;20045;-88
2021/01/02 07:19:41;;;;;;;48.45;23.35;;;4.90;92.80;;;5.04;76.59;100272.38;5044937;28;20049;-88
2021/01/02 07:22:11;;;;;;;44.47;22.30;;;4.90;92.90;;;5.02;76.75;100281.66;5045286;28;20806;-88
2021/01/02 07:24:44;;;;;;;43.78;23.08;;;4.90;92.70;;;5.01;76.44;100288.91;5061641;28;20835;-88
2021/01/02 07:27:14;;;;;;;42.30;21.48;;;4.90;92.70;;;5.06;76.21;100281.19;5046732;28;20044;-88
2021/01/02 07:29:43;;;;;;;40.72;22.02;;;4.90;92.30;;;4.99;76.37;100272.03;5045038;28;20048;-89
2021/01/02 07:32:13;;;;;;;49.95;24.52;;;4.90;92.60;;;4.98;76.19;100282.97;5045308;28;20521;-89
2021/01/02 07:34:43;;;;;;;48.10;23.45;;;4.90;92.50;;;4.97;76.37;100284.81;5045130;28;20063;-88
2021/01/02 07:37:12;;;;;;;50.60;25.15;;;4.90;92.30;;;4.94;76.77;100293.19;5046567;28;20055;-88
2021/01/02 07:39:40;;;;;;;46.53;23.38;;;5.00;92.20;;;5.00;76.63;100291.75;5045082;28;20072;-90
2021/01/02 07:42:10;;;;;;;47.22;23.27;;;4.90;92.20;;;5.03;76.00;100284.19;5046332;28;20048;-88
2021/01/02 07:44:42;;;;;;;45.22;22.70;;;4.90;92.30;;;5.01;76.17;100286.19;5045240;28;20045;-88
2021/01/02 07:47:08;;;;;;;46.75;22.48;;;4.90;92.10;;;5.04;76.09;100293.97;5044735;28;20060;-89
2021/01/02 07:49:35;;;;;;;44.63;22.70;;;4.90;91.90;;;5.09;75.90;100299.75;5044697;28;20079;-87
2021/01/02 07:52:04;;;;;;;42.17;22.27;;;4.90;92.00;;;5.07;75.38;100299.06;5045822;28;20049;-88
2021/01/02 07:54:35;;;;;;;41.47;22.33;;;4.90;91.90;;;5.07;76.10;100298.22;5046010;28;20091;-89
2021/01/02 07:57:06;;;;;;;39.92;22.50;;;4.90;92.20;;;5.12;75.51;100295.03;5045616;28;20052;-88
2021/01/02 07:59:37;;;;;;;44.90;22.73;;;4.90;91.80;;;5.09;75.66;100302.44;5044703;28;20045;-89
2021/01/02 08:02:07;;;;;;;41.65;22.48;;;4.90;92.10;;;5.07;75.88;100303.63;5044520;28;20156;-88
2021/01/02 08:04:34;;;;;;;38.55;21.73;;;4.90;91.90;;;5.05;75.97;100309.16;5061136;28;20527;-89
2021/01/02 08:07:04;;;;;;;38.50;20.67;;;4.90;92.10;;;5.11;75.52;100304.16;5044516;28;20048;-90
2021/01/02 08:09:33;;;;;;;43.00;23.30;;;4.90;92.20;;;5.08;75.76;100308.00;5044739;28;20040;-89
2021/01/02 08:12:05;;;;;;;40.45;21.90;;;4.90;92.00;;;5.05;76.04;100308.31;5046200;28;20126;-89
2021/01/02 08:14:33;;;;;;;39.92;21.88;;;4.90;91.80;;;5.09;75.91;100318.63;5075924;28;20142;-89
2021/01/02 08:17:22;;;;;;;39.42;21.52;;;5.00;92.00;;;5.06;75.94;100310.88;5064513;28;20051;-89
2021/01/02 08:19:56;;;;;;;42.42;23.13;;;4.90;92.20;;;5.06;76.15;100318.97;5064415;28;20048;-87
2021/01/02 08:22:36;;;;;;;45.20;22.98;;;4.90;92.30;;;5.11;75.89;100320.34;5065872;28;20044;-87
2021/01/02 08:25:09;;;;;;;39.83;22.25;;;5.00;92.20;;;5.11;76.46;100323.03;5064012;28;20041;-88
2021/01/02 08:27:37;;;;;;;41.58;22.83;;;5.00;92.70;;;5.11;75.39;100320.34;5064017;28;20044;-87
2021/01/02 08:30:09;;;;;;;40.58;21.77;;;5.00;92.30;;;5.05;76.13;100322.66;5081525;28;20063;-88
2021/01/02 08:32:37;;;;;;;;;;;5.00;92.20;;;5.07;76.30;100317.94;5064670;28;20490;-88
2021/01/02 08:35:16;;;;;;;42.97;22.42;;;5.00;92.20;;;5.09;76.52;100324.03;5065473;28;20453;-86
2021/01/02 08:37:46;;;;;;;38.10;21.02;;;5.00;92.20;;;5.05;76.60;100328.03;5064414;28;20076;-86
2021/01/02 08:40:16;;;;;;;41.00;21.33;;;5.00;92.20;;;5.09;76.45;100323.19;5064805;28;20417;-86
2021/01/02 08:42:46;;;;;;;38.75;20.85;;;5.00;91.80;;;5.14;76.14;100328.97;5064148;28;20149;-88
2021/01/02 08:45:26;;;;;;;45.78;22.50;;;5.00;92.10;;;5.17;76.22;100327.81;5064762;28;20056;-87
2021/01/02 08:48:05;;;;;;;43.63;23.33;;;5.10;92.20;;;5.17;76.03;100335.91;5064546;28;20049;-87
2021/01/02 08:50:32;;;;;;;42.22;22.83;;;5.00;91.80;;;5.22;75.85;100336.31;5064732;28;20048;-90
2021/01/02 08:53:00;;;;;;;42.08;22.80;;;5.10;92.10;;;5.24;76.01;100337.00;5064979;28;20049;-88
2021/01/02 08:55:29;;;;;;;46.53;23.45;;;5.00;91.90;;;5.23;75.93;100340.66;5065685;28;20048;-88
2021/01/02 08:57:56;;;;;;;39.50;22.17;;;5.10;92.00;;;5.23;75.81;100330.72;5068176;28;20048;-86
2021/01/02 09:00:25;;;;;;;47.10;24.10;;;5.00;91.80;;;5.19;75.61;100339.28;5064876;28;20041;-86
2021/01/02 09:03:07;;;;;;;41.80;22.27;;;5.10;91.90;;;5.17;76.20;100344.00;5063572;28;20036;-87
2021/01/02 09:05:37;;;;;;;42.22;22.70;;;5.10;92.00;;;5.17;75.92;100346.69;5065210;28;20047;-87
2021/01/02 09:08:08;;;;;;;47.78;22.63;;;5.10;92.00;;;5.08;76.37;100343.94;5063098;28;20048;-87
2021/01/02 09:10:37;;;;;;;46.63;22.85;;;5.10;91.90;;;5.13;76.44;100353.41;5065469;28;20151;-88
2021/01/02 09:13:11;;;;;;;42.95;23.63;;;5.20;91.80;;;5.12;76.37;100355.22;5063511;28;20052;-87
2021/01/02 09:15:54;;;;;;;44.65;23.38;;;5.10;91.70;;;5.11;76.38;100347.31;5080546;28;20055;-87
2021/01/02 09:18:43;;;;;;;46.00;23.48;;;5.20;91.90;;;5.18;76.20;100353.78;5063578;28;20055;-88
2021/01/02 09:21:27;;;;;;;50.20;24.30;;;5.20;91.60;;;5.09;76.62;100355.56;5065482;28;20033;-89
2021/01/02 09:23:55;;;;;;;44.80;23.08;;;5.20;91.90;;;5.14;76.59;100369.44;5067519;28;20044;-86
2021/01/02 09:26:27;;;;;;;49.08;24.40;;;5.20;91.90;;;5.14;76.79;100365.88;5068993;28;20807;-87
2021/01/02 09:32:40;;;;;;;49.72;23.00;;;5.10;91.90;;;5.20;76.40;100373.38;5021307;28;19931;-86
2021/01/02 09:35:29;;;;;;;45.10;22.88;;;5.20;91.90;;;5.14;76.96;100363.16;5068311;28;20055;-86
2021/01/02 09:38:01;;;;;;;44.55;23.75;;;5.20;91.90;;;5.13;76.98;100373.13;5067658;28;20114;-87
2021/01/02 09:45:40;;;;;;;46.42;23.45;;;5.20;91.90;;;5.14;76.46;100379.34;5025816;28;20864;-86
2021/01/02 09:48:43;;;;;;;47.35;23.90;;;5.30;92.00;;;5.15;76.85;100373.81;5009735;28;20080;-88
2021/01/02 09:51:18;;;;;;;48.80;22.77;;;5.30;92.00;;;5.17;76.92;100377.22;5009129;28;20139;-87
2021/01/02 09:53:45;;;;;;;48.67;22.85;;;5.30;91.60;;;5.25;76.61;100381.84;5009057;28;20054;-87
2021/01/02 09:56:12;;;;;;;47.08;23.80;;;5.30;92.10;;;5.27;76.93;100374.44;5083344;28;20041;-86
2021/01/02 09:58:41;;;;;;;48.95;23.52;;;5.30;92.00;;;5.26;76.67;100381.69;5066253;28;20063;-87
2021/01/02 10:01:09;;;;;;;48.75;24.35;;;5.30;92.10;;;5.27;76.73;100374.44;5067855;28;20132;-86
2021/01/02 10:03:36;;;;;;;43.58;23.17;;;5.30;92.10;;;5.29;76.67;100377.81;5067908;28;20045;-86
2021/01/02 10:06:04;;;;;;;46.85;23.77;;;5.30;92.00;;;5.35;76.97;100377.22;5066452;28;20051;-87
2021/01/02 10:08:31;;;;;;;43.90;22.33;;;5.40;92.40;;;5.36;77.11;100378.06;5065964;28;20049;-86
2021/01/02 10:10:58;;;;;;;46.60;23.13;;;5.40;92.30;;;5.39;76.71;100378.63;5066551;28;20087;-87
2021/01/02 10:13:25;;;;;;;46.05;24.33;;;5.40;92.60;;;5.37;76.37;100379.75;5066533;28;20044;-86
2021/01/02 10:15:52;;;;;;;42.90;22.63;;;5.40;91.60;;;5.39;76.93;100378.63;5066157;28;20052;-86
2021/01/02 10:18:19;;;;;;;44.83;23.08;;;5.40;92.00;;;5.33;76.52;100379.25;5065628;28;20468;-87
2021/01/02 10:20:46;;;;;;;42.17;22.25;;;5.40;91.70;;;5.35;76.86;100382.63;5083224;28;20071;-87
2021/01/02 10:23:13;;;;;;;49.80;24.23;;;5.40;91.70;;;5.41;76.45;100382.00;5067260;28;20434;-86
2021/01/02 10:26:42;;;;;;;42.95;23.05;;;5.50;91.90;;;5.35;77.27;100382.63;5066375;28;20521;-86
2021/01/02 10:29:11;;;;;;;41.58;22.92;;;5.50;92.20;;;5.29;76.91;100377.81;5072617;28;20053;-86
2021/01/02 10:31:38;;;;;;;49.20;24.17;;;5.50;91.90;;;5.31;77.20;100381.22;5057270;28;20060;-87
2021/01/02 10:34:06;;;;;;;45.05;23.40;;;5.50;91.70;;;5.30;77.51;100379.53;5066396;28;20072;-86
2021/01/02 10:36:33;;;;;;;43.97;22.58;;;5.50;92.10;;;5.34;76.72;100374.69;5065728;28;20051;-86
2021/01/02 10:39:00;;;;;;;45.88;23.85;;;5.50;91.70;;;5.37;77.08;100380.63;5065919;28;20040;-86
2021/01/02 10:41:27;;;;;;;43.10;22.33;;;5.50;91.70;;;5.33;77.12;100379.25;5075090;28;20060;-90
2021/01/02 10:43:54;;;;;;;42.33;23.38;;;5.60;91.80;;;5.37;76.90;100369.81;5066256;28;20051;-88
2021/01/02 10:46:21;;;;;;;41.83;22.85;;;5.60;91.40;;;5.39;77.02;100373.22;5067603;28;20543;-88
2021/01/02 10:48:48;;;;;;;49.95;24.58;;;5.60;91.10;;;5.49;76.78;100379.38;5066869;28;20068;-89
2021/01/02 10:51:17;;;;;;;45.35;23.58;;;5.60;91.20;;;5.49;76.66;100365.88;5066398;28;20053;-89
2021/01/02 10:53:46;;;;;;;46.70;23.85;;;5.70;91.60;;;5.46;76.84;100365.34;5067016;28;20053;-88